Time;durP1;ratioP1;P1;durP2;ratioP2;P2;SDS_P1;SDS_P2;PMS_P1;PMS_P2;Temp;Humidity;BMP_temperature;BMP_pressure;BME280_temperature;BME280_humidity;BME280_pressure;Samples;Min_cycle;Max_cycle;Signal;HPM_P1;HPM_P2
2021/12/21 00:09:32;;;;;;;6.50;3.90;;;;;;;-2.93;79.71;99975.63;429611;1309;142020;-68
2021/12/21 00:19:53;;;;;;;7.50;3.80;;;;;;;-2.91;79.77;99982.64;433954;1312;141719;-68
2021/12/21 00:29:59;;;;;;;9.10;4.70;;;;;;;-2.93;79.89;99977.50;429060;1309;142419;-72
2021/12/21 00:40:06;;;;;;;6.40;3.90;;;;;;;-3.11;79.98;99985.42;419828;1312;142729;-69
2021/12/21 00:50:16;;;;;;;6.90;3.70;;;;;;;-3.30;80.14;99988.02;435044;1312;142184;-66
2021/12/21 01:00:23;;;;;;;5.80;3.70;;;;;;;-3.54;80.26;99995.55;419001;1311;143342;-62
2021/12/21 01:10:50;;;;;;;6.30;3.70;;;;;;;-3.76;80.71;99996.55;430277;1310;141134;-62
2021/12/21 01:21:05;;;;;;;5.50;3.20;;;;;;;-3.90;80.77;100010.05;427368;1309;141878;-56
2021/12/21 01:31:24;;;;;;;5.40;2.80;;;;;;;-4.00;81.14;100015.85;421135;1311;208411;-61
2021/12/21 01:41:36;;;;;;;5.80;3.50;;;;;;;-3.86;81.47;100018.78;434739;1312;142638;-64
2021/12/21 01:51:42;;;;;;;5.90;3.50;;;;;;;-3.76;81.17;100013.15;428785;1311;142099;-69
2021/12/21 02:01:48;;;;;;;4.40;2.90;;;;;;;-3.78;81.46;100008.70;425388;1312;142667;-71
2021/12/21 02:11:54;;;;;;;5.90;4.00;;;;;;;-3.73;81.33;100010.60;434724;1311;142036;-68
2021/12/21 02:22:08;;;;;;;4.00;3.20;;;;;;;-3.76;81.05;100007.34;433302;1312;142290;-70
2021/12/21 02:32:15;;;;;;;7.30;4.00;;;;;;;-3.69;81.03;100019.66;435081;1312;142482;-75
2021/12/21 02:42:21;;;;;;;3.70;3.00;;;;;;;-3.69;80.56;100021.38;429823;1312;141774;-72
2021/12/21 02:52:27;;;;;;;4.70;2.70;;;;;;;-3.87;80.51;100023.05;430045;1313;142234;-69
2021/12/21 03:02:33;;;;;;;7.40;2.40;;;;;;;-3.93;80.61;100026.30;434743;1314;142930;-69
2021/12/21 03:22:58;;;;;;;6.00;3.90;;;;;;;-3.68;80.95;100028.57;426016;1313;129234;-70
2021/12/21 03:33:03;;;;;;;7.90;4.30;;;;;;;-3.59;80.88;100033.02;421992;1312;142195;-69
2021/12/21 03:43:10;;;;;;;4.70;3.10;;;;;;;-3.54;80.70;100033.38;418917;1311;142071;-70
2021/12/21 03:53:17;;;;;;;4.70;2.00;;;;;;;-3.51;80.51;100033.55;435279;1307;142269;-71
2021/12/21 04:03:23;;;;;;;4.80;2.60;;;;;;;-3.41;80.16;100040.05;433924;1312;143349;-74
2021/12/21 04:13:30;;;;;;;5.60;2.20;;;;;;;-3.36;80.00;100055.29;424842;1312;141636;-74
2021/12/21 04:23:35;;;;;;;6.20;2.60;;;;;;;-3.35;79.73;100061.11;434037;1315;142477;-74
2021/12/21 04:33:43;;;;;;;4.60;2.90;;;;;;;-3.63;79.47;100060.73;423974;1314;143417;-73
2021/12/21 04:43:49;;;;;;;4.90;3.10;;;;;;;-3.92;79.81;100064.09;421256;1313;142334;-73
2021/12/21 04:53:55;;;;;;;4.80;3.00;;;;;;;-3.87;79.74;100079.85;420403;1313;143217;-71
2021/12/21 05:04:01;;;;;;;5.70;2.50;;;;;;;-3.83;79.65;100088.42;422161;1313;223133;-77
2021/12/21 05:14:09;;;;;;;7.70;3.40;;;;;;;-3.86;79.38;100096.77;423818;1312;141773;-76
2021/12/21 05:24:14;;;;;;;3.90;2.30;;;;;;;-3.95;79.36;100106.68;422657;1315;144814;-76
2021/12/21 05:34:20;;;;;;;4.10;2.20;;;;;;;-3.98;79.33;100108.89;427868;1312;141200;-65
2021/12/21 05:44:27;;;;;;;5.00;3.40;;;;;;;-3.98;79.19;100113.18;433911;1308;142672;-64
2021/12/21 05:54:33;;;;;;;5.90;3.50;;;;;;;-4.03;78.97;100115.88;434050;1312;142359;-65
2021/12/21 06:04:38;;;;;;;3.00;2.20;;;;;;;-4.08;79.14;100129.37;434806;1313;142852;-66
2021/12/21 06:15:13;;;;;;;4.30;2.40;;;;;;;-4.05;78.98;100137.94;434722;1312;146646;-65
2021/12/21 06:25:35;;;;;;;3.20;2.90;;;;;;;-4.04;78.98;100148.72;433534;1311;142491;-66
2021/12/21 06:35:42;;;;;;;5.10;4.20;;;;;;;-4.06;78.67;100151.62;433282;1313;143927;-66
2021/12/21 06:45:54;;;;;;;8.50;6.10;;;;;;;-4.08;78.65;100159.98;433572;1311;142391;-66
2021/12/21 06:56:00;;;;;;;5.80;4.40;;;;;;;-4.03;78.66;100181.56;434075;1310;143324;-66
2021/12/21 07:06:06;;;;;;;6.80;4.90;;;;;;;-4.01;78.61;100184.98;434666;1309;144909;-67
2021/12/21 07:26:37;;;;;;;7.40;5.90;;;;;;;-3.99;78.86;100196.46;425135;1311;142809;-67
2021/12/21 07:36:43;;;;;;;9.30;6.90;;;;;;;-3.97;78.74;100181.94;432857;1311;141848;-67
2021/12/21 07:46:49;;;;;;;10.20;6.50;;;;;;;-3.91;78.79;100188.80;433381;1312;142636;-67
2021/12/21 07:56:55;;;;;;;16.80;7.40;;;;;;;-3.79;78.74;100200.49;433934;1311;142465;-68
2021/12/21 08:07:08;;;;;;;7.30;6.50;;;;;;;-3.69;78.82;100212.17;419317;1311;142507;-67
2021/12/21 08:17:14;;;;;;;6.50;5.20;;;;;;;-3.59;78.72;100215.98;434539;1310;141427;-66
2021/12/21 08:27:21;;;;;;;8.20;5.00;;;;;;;-3.51;78.51;100224.40;434373;1312;141805;-66
2021/12/21 08:37:28;;;;;;;12.40;5.40;;;;;;;-3.33;78.34;100224.80;434175;1309;142826;-67
2021/12/21 08:47:34;;;;;;;8.10;6.40;;;;;;;-3.17;78.22;100233.92;422634;1311;142278;-67
2021/12/21 08:57:39;;;;;;;7.90;5.50;;;;;;;-3.01;78.03;100239.63;418296;1309;142670;-66
2021/12/21 09:07:46;;;;;;;11.70;6.10;;;;;;;-2.83;77.73;100248.40;424312;1312;143075;-66
2021/12/21 09:17:57;;;;;;;8.40;6.00;;;;;;;-2.61;77.46;100256.30;434525;1309;146523;-66
2021/12/21 09:28:03;;;;;;;5.40;4.70;;;;;;;-2.50;77.27;100258.88;434806;1310;195733;-65
2021/12/21 09:38:08;;;;;;;6.60;5.30;;;;;;;-2.27;76.97;100264.20;434968;1311;142809;-67
2021/12/21 09:48:14;;;;;;;7.20;4.10;;;;;;;-1.96;76.26;100266.22;434291;1311;142557;-67
2021/12/21 09:58:21;;;;;;;5.60;4.70;;;;;;;-1.83;75.61;100268.95;433769;1310;142343;-66
2021/12/21 10:08:32;;;;;;;6.70;4.50;;;;;;;-1.98;75.52;100267.44;435323;1310;141890;-66
2021/12/21 10:18:41;;;;;;;7.60;5.90;;;;;;;-1.83;74.96;100261.90;434363;1309;142509;-65
2021/12/21 10:28:49;;;;;;;6.10;4.00;;;;;;;-1.47;74.74;100255.45;433764;1309;142064;-63
2021/12/21 10:38:57;;;;;;;5.60;4.80;;;;;;;-1.22;74.41;100254.83;432323;1311;142404;-58
2021/12/21 10:49:12;;;;;;;10.00;5.40;;;;;;;-0.94;74.19;100246.25;435270;1309;143015;-65
2021/12/21 10:59:18;;;;;;;10.70;5.90;;;;;;;-0.97;73.26;100234.23;434194;1311;143370;-64
2021/12/21 11:09:29;;;;;;;8.10;5.30;;;;;;;-1.11;73.41;100233.98;433893;1311;143171;-63
2021/12/21 11:19:35;;;;;;;6.10;4.60;;;;;;;-1.04;73.28;100226.89;435328;1309;142346;-60
2021/12/21 11:29:42;;;;;;;8.50;4.80;;;;;;;-0.84;72.66;100221.27;433982;1310;141775;-61
2021/12/21 11:39:48;;;;;;;6.60;4.90;;;;;;;-0.78;72.42;100224.83;434421;1310;142401;-62
2021/12/21 11:50:00;;;;;;;8.80;4.60;;;;;;;-0.95;72.00;100223.05;435106;1309;141757;-67
2021/12/21 12:00:14;;;;;;;8.50;4.20;;;;;;;-1.09;71.61;100220.91;425695;1310;144552;-64
2021/12/21 12:10:21;;;;;;;6.00;4.60;;;;;;;-1.25;71.82;100211.38;435268;1307;142347;-63
2021/12/21 12:20:29;;;;;;;8.40;5.20;;;;;;;-1.12;72.05;100215.08;434232;1311;142418;-62
2021/12/21 12:30:35;;;;;;;5.80;3.60;;;;;;;-1.26;71.25;100215.50;434563;1306;142687;-63
2021/12/21 12:40:44;;;;;;;6.60;4.30;;;;;;;-1.53;71.33;100207.55;430715;1309;142267;-67
2021/12/21 12:50:52;;;;;;;5.40;3.60;;;;;;;-1.60;71.65;100209.13;431971;1311;142305;-69
2021/12/21 13:01:02;;;;;;;6.10;4.10;;;;;;;-1.81;72.10;100211.27;420914;1312;191168;-67
2021/12/21 13:11:13;;;;;;;6.80;4.30;;;;;;;-1.95;72.56;100210.45;434432;1311;141538;-70
2021/12/21 13:21:25;;;;;;;6.70;5.60;;;;;;;-1.91;72.71;100217.13;420357;1309;142106;-67
2021/12/21 13:31:31;;;;;;;9.50;5.30;;;;;;;-2.18;72.58;100219.06;429016;1310;142795;-62
2021/12/21 13:41:47;;;;;;;10.10;7.10;;;;;;;-2.36;73.12;100223.55;419761;1306;142550;-67
2021/12/21 13:51:55;;;;;;;11.30;5.80;;;;;;;-2.55;73.64;100223.56;418238;1309;144947;-65
2021/12/21 14:02:07;;;;;;;6.90;4.70;;;;;;;-2.69;73.93;100232.82;435446;1309;142216;-72
2021/12/21 14:12:16;;;;;;;7.90;5.30;;;;;;;-2.78;74.20;100234.34;429368;1308;142360;-65
2021/12/21 14:22:23;;;;;;;7.30;5.20;;;;;;;-2.89;74.58;100230.57;435253;1309;142197;-64
2021/12/21 14:32:42;;;;;;;8.40;6.00;;;;;;;-2.94;74.70;100227.65;424598;1309;141156;-67
2021/12/21 14:42:53;;;;;;;12.80;6.50;;;;;;;-2.98;74.98;100230.20;427707;1311;142621;-63
2021/12/21 14:53:00;;;;;;;13.20;7.40;;;;;;;-3.03;75.09;100224.88;427621;1308;142307;-64
2021/12/21 15:03:09;;;;;;;11.70;7.70;;;;;;;-3.18;75.32;100214.23;421275;1309;142869;-69
2021/12/21 15:13:18;;;;;;;15.00;7.90;;;;;;;-3.21;75.67;100216.27;420449;1309;142182;-70
2021/12/21 15:23:24;;;;;;;13.30;7.90;;;;;;;-3.21;75.94;100209.94;435000;1308;146071;-70
2021/12/21 15:33:30;;;;;;;19.80;9.60;;;;;;;-3.27;76.07;100203.94;434587;1309;143461;-63
2021/12/21 15:43:39;;;;;;;18.20;10.90;;;;;;;-3.25;76.23;100203.42;434732;1308;141717;-63
2021/12/21 15:53:45;;;;;;;17.40;10.20;;;;;;;-3.28;76.35;100208.20;435275;1311;142579;-62
2021/12/21 16:03:51;;;;;;;16.70;9.50;;;;;;;-3.28;76.56;100211.48;434629;1309;143379;-61
2021/12/21 16:13:57;;;;;;;17.90;11.30;;;;;;;-3.29;76.63;100208.55;434932;1310;144918;-62
2021/12/21 16:24:04;;;;;;;16.60;10.60;;;;;;;-3.30;76.75;100209.06;433322;1307;142841;-62
2021/12/21 16:34:10;;;;;;;20.40;9.80;;;;;;;-3.36;76.72;100218.80;434965;1308;142524;-62
2021/12/21 16:44:16;;;;;;;18.20;9.80;;;;;;;-3.35;76.87;100214.70;420215;1309;142878;-61
2021/12/21 16:54:22;;;;;;;15.50;9.60;;;;;;;-3.33;76.82;100215.73;432231;1307;141698;-62
2021/12/21 17:04:28;;;;;;;24.90;10.70;;;;;;;-3.32;77.07;100218.82;434645;1312;141963;-62
2021/12/21 17:14:34;;;;;;;18.30;11.20;;;;;;;-3.29;77.11;100217.27;430149;1309;141955;-62
2021/12/21 17:24:39;;;;;;;;;;;;;;;-3.29;77.13;100223.62;418516;1309;143852;-61
2021/12/21 17:34:47;;;;;;;21.10;12.20;;;;;;;-3.33;77.07;100223.95;430355;1309;128310;-61
2021/12/21 17:44:53;;;;;;;21.90;11.40;;;;;;;-3.32;77.36;100230.29;434034;1308;142289;-62
2021/12/21 17:55:00;;;;;;;20.60;10.80;;;;;;;-3.22;77.31;100227.23;419286;1311;142263;-60
2021/12/21 18:05:07;;;;;;;14.70;10.10;;;;;;;-3.18;77.17;100226.21;435636;1311;141883;-62
2021/12/21 18:15:14;;;;;;;19.60;9.60;;;;;;;-3.13;77.30;100232.58;428064;1308;142135;-62
2021/12/21 18:25:20;;;;;;;16.70;9.50;;;;;;;-3.09;77.15;100229.14;434373;1311;141862;-61
2021/12/21 18:35:27;;;;;;;13.30;7.20;;;;;;;-3.06;77.16;100227.95;435726;1311;141973;-61
2021/12/21 18:45:37;;;;;;;12.00;8.00;;;;;;;-3.02;77.17;100221.11;430227;1309;141311;-61
2021/12/21 18:55:43;;;;;;;13.50;8.10;;;;;;;-3.00;77.27;100227.98;419267;1309;142983;-62
2021/12/21 19:05:49;;;;;;;16.50;9.60;;;;;;;-3.02;77.16;100233.28;429365;1309;142027;-62
2021/12/21 19:15:56;;;;;;;18.90;9.30;;;;;;;-3.04;77.24;100242.69;418857;1311;142941;-62
2021/12/21 19:26:02;;;;;;;16.40;8.70;;;;;;;-3.05;77.30;100242.19;434258;1310;141958;-62
2021/12/21 19:36:08;;;;;;;14.70;9.80;;;;;;;-3.08;77.20;100242.51;433552;1311;141844;-63
2021/12/21 19:46:14;;;;;;;16.00;8.60;;;;;;;-3.05;77.50;100242.02;434217;1310;142119;-67
2021/12/21 19:56:20;;;;;;;14.20;8.40;;;;;;;-3.08;77.56;100251.77;434232;1308;142279;-66
2021/12/21 20:06:26;;;;;;;17.40;11.10;;;;;;;-3.10;77.79;100260.16;434900;1311;141939;-66
2021/12/21 20:16:32;;;;;;;12.60;7.90;;;;;;;-3.12;77.85;100264.77;435617;1311;142704;-71
2021/12/21 20:26:38;;;;;;;13.90;9.00;;;;;;;-3.16;78.27;100266.81;434634;1312;141936;-70
2021/12/21 20:36:44;;;;;;;15.70;9.50;;;;;;;-3.24;78.29;100269.70;432822;1311;142420;-70
2021/12/21 20:46:50;;;;;;;14.70;9.50;;;;;;;-3.31;78.58;100268.98;435394;1311;141845;-70
2021/12/21 20:56:56;;;;;;;14.80;9.90;;;;;;;-3.33;78.88;100270.01;425644;1311;142473;-66
2021/12/21 21:07:03;;;;;;;21.00;11.80;;;;;;;-3.34;79.28;100273.77;419654;1307;210234;-69
2021/12/21 21:17:07;;;;;;;;;;;;;;;-3.43;79.51;100282.80;431300;1311;142233;-70
2021/12/21 21:27:14;;;;;;;14.70;8.50;;;;;;;-3.57;79.62;100301.05;435220;1310;127926;-70
2021/12/21 21:37:19;;;;;;;10.10;6.70;;;;;;;-3.73;79.75;100305.08;433669;1313;142236;-71
2021/12/21 21:47:25;;;;;;;11.60;8.20;;;;;;;-3.84;79.74;100294.91;434479;1310;142466;-71
2021/12/21 21:57:31;;;;;;;11.60;7.10;;;;;;;-4.14;79.81;100290.09;432077;1314;142272;-70
2021/12/21 22:07:38;;;;;;;10.90;7.20;;;;;;;-4.45;80.08;100298.05;434418;1311;141526;-70
2021/12/21 22:17:44;;;;;;;14.00;8.20;;;;;;;-4.62;80.73;100311.73;420508;1315;142503;-71
2021/12/21 22:27:50;;;;;;;17.30;9.00;;;;;;;-4.66;80.90;100311.86;434981;1312;142454;-72
2021/12/21 22:37:54;;;;;;;;;;;;;;;-4.57;81.20;100314.67;435373;1310;141668;-71
2021/12/21 22:48:00;;;;;;;19.90;12.50;;;;;;;-4.42;81.40;100317.05;427639;1314;128410;-70
2021/12/21 22:58:08;;;;;;;21.40;13.00;;;;;;;-4.40;81.39;100326.13;420116;1312;142135;-71
2021/12/21 23:08:15;;;;;;;16.50;11.70;;;;;;;-4.59;81.58;100330.04;419646;1311;142977;-71
2021/12/21 23:18:21;;;;;;;17.10;10.30;;;;;;;-4.96;81.41;100335.62;434337;1311;141891;-71
2021/12/21 23:28:27;;;;;;;17.10;11.30;;;;;;;-5.27;81.68;100344.14;419355;1310;142097;-70
2021/12/21 23:38:32;;;;;;;;;;;;;;;-5.50;82.01;100350.48;419445;1307;141850;-64
2021/12/21 23:48:40;;;;;;;22.40;15.30;;;;;;;-5.77;82.15;100360.48;421042;1312;128484;-66
2021/12/21 23:58:46;;;;;;;26.50;15.80;;;;;;;-6.04;82.28;100360.95;435493;1310;142511;-69
